Back to Top

Language: 

My Weather Underground Personal Weather Station Historical Data with Graphs...

Delerius Weather Station Historical Data
Daily Summary for April 7, 2017 Units:  Both    English   Metric
« Previous Day
Next Day »
Daily Weekly Monthly Yearly Custom
  High: Low: Average:
Temperature: 57.7 °F /  14.3 °C 38.1 °F /  3.4 °C 48.5 °F /  9.2 °C
Dew Point: 43.0 °F /  6.1 °C 34.9 °F /  1.6 °C 40.9 °F /  4.9 °C
Humidity: 92 % 55 % 76 %
Wind Speed: 8.0 mph /  12.9 km/h - 3.8 mph /  6.1 km/h
Wind Gust: 20.0 mph /  32.2 km/h - -
Wind:- - WNW
Pressure: 30.37 in /  1028.3 hPa 30.26 in /  1024.6 hPa -
Precipitation: 0.00 in /  0 mm    
Historical Graphs
 
 
Tabular Data for April 7, 2017
Time Temperature Dew Point Pressure Wind Wind Speed Wind Gust Humidity Rainfall Rate (Hourly) solar Conditions
00:00 43.3 °F /  6.3 °C 39.4 °F /  4.1 °C 30.37 in /  1028.3 hPa WNW 2.0 mph /  3.2 km/h 5.0 mph /  8 km/h 86 % 0.00 in /  0 mm 0 W/m2
00:05 43.2 °F /  6.2 °C 39.6 °F /  4.2 °C 30.37 in /  1028.3 hPa WNW 2.0 mph /  3.2 km/h 6.0 mph /  9.7 km/h 87 % 0.00 in /  0 mm 0 W/m2
00:10 43.2 °F /  6.2 °C 39.6 °F /  4.2 °C 30.37 in /  1028.3 hPa WNW 3.0 mph /  4.8 km/h 7.0 mph /  11.3 km/h 87 % 0.00 in /  0 mm 0 W/m2
00:15 43.3 °F /  6.3 °C 40.0 °F /  4.4 °C 30.37 in /  1028.3 hPa WNW 3.0 mph /  4.8 km/h 7.0 mph /  11.3 km/h 88 % 0.00 in /  0 mm 0 W/m2
00:20 43.3 °F /  6.3 °C 40.0 °F /  4.4 °C 30.37 in /  1028.3 hPa WNW 3.0 mph /  4.8 km/h 6.0 mph /  9.7 km/h 88 % 0.00 in /  0 mm 0 W/m2
00:25 43.3 °F /  6.3 °C 40.0 °F /  4.4 °C 30.37 in /  1028.3 hPa WNW 4.0 mph /  6.4 km/h 8.0 mph /  12.9 km/h 88 % 0.00 in /  0 mm 0 W/m2
00:30 43.3 °F /  6.3 °C 40.0 °F /  4.4 °C 30.37 in /  1028.3 hPa WNW 3.0 mph /  4.8 km/h 8.0 mph /  12.9 km/h 88 % 0.00 in /  0 mm 0 W/m2
00:35 43.3 °F /  6.3 °C 40.0 °F /  4.4 °C 30.36 in /  1028 hPa WNW 3.0 mph /  4.8 km/h 6.0 mph /  9.7 km/h 88 % 0.00 in /  0 mm 0 W/m2
00:40 43.3 °F /  6.3 °C 40.0 °F /  4.4 °C 30.36 in /  1028 hPa WNW 4.0 mph /  6.4 km/h 7.0 mph /  11.3 km/h 88 % 0.00 in /  0 mm 0 W/m2
00:45 43.3 °F /  6.3 °C 40.0 °F /  4.4 °C 30.36 in /  1028 hPa WNW 4.0 mph /  6.4 km/h 7.0 mph /  11.3 km/h 88 % 0.00 in /  0 mm 0 W/m2
00:50 43.3 °F /  6.3 °C 40.0 °F /  4.4 °C 30.36 in /  1028 hPa WNW 4.0 mph /  6.4 km/h 9.0 mph /  14.5 km/h 88 % 0.00 in /  0 mm 0 W/m2
00:55 43.3 °F /  6.3 °C 40.3 °F /  4.6 °C 30.36 in /  1028 hPa WNW 4.0 mph /  6.4 km/h 9.0 mph /  14.5 km/h 89 % 0.00 in /  0 mm 0 W/m2
01:00 43.5 °F /  6.4 °C 40.5 °F /  4.7 °C 30.36 in /  1028 hPa WNW 4.0 mph /  6.4 km/h 7.0 mph /  11.3 km/h 89 % 0.00 in /  0 mm 0 W/m2
01:05 43.5 °F /  6.4 °C 40.5 °F /  4.7 °C 30.36 in /  1028 hPa WNW 4.0 mph /  6.4 km/h 7.0 mph /  11.3 km/h 89 % 0.00 in /  0 mm 0 W/m2
01:10 43.5 °F /  6.4 °C 40.5 °F /  4.7 °C 30.36 in /  1028 hPa WNW 4.0 mph /  6.4 km/h 8.0 mph /  12.9 km/h 89 % 0.00 in /  0 mm 0 W/m2
01:15 43.5 °F /  6.4 °C 40.5 °F /  4.7 °C 30.36 in /  1028 hPa WNW 4.0 mph /  6.4 km/h 8.0 mph /  12.9 km/h 89 % 0.00 in /  0 mm 0 W/m2
01:20 43.5 °F /  6.4 °C 40.5 °F /  4.7 °C 30.35 in /  1027.7 hPa WNW 3.0 mph /  4.8 km/h 6.0 mph /  9.7 km/h 89 % 0.00 in /  0 mm 0 W/m2
01:22 43.5 °F /  6.4 °C 40.5 °F /  4.7 °C 30.35 in /  1027.7 hPa WNW 3.0 mph /  4.8 km/h 6.0 mph /  9.7 km/h 89 % 0.00 in /  0 mm 0 W/m2
01:27 43.3 °F /  6.3 °C 40.3 °F /  4.6 °C 30.35 in /  1027.7 hPa WNW 3.0 mph /  4.8 km/h 6.0 mph /  9.7 km/h 89 % 0.00 in /  0 mm 0 W/m2
01:32 43.3 °F /  6.3 °C 40.3 °F /  4.6 °C 30.35 in /  1027.7 hPa WNW 3.0 mph /  4.8 km/h 6.0 mph /  9.7 km/h 89 % 0.00 in /  0 mm 0 W/m2
01:37 43.2 °F /  6.2 °C 40.1 °F /  4.5 °C 30.35 in /  1027.7 hPa WNW 2.0 mph /  3.2 km/h 5.0 mph /  8 km/h 89 % 0.00 in /  0 mm 0 W/m2
01:42 43.2 °F /  6.2 °C 40.1 °F /  4.5 °C 30.35 in /  1027.7 hPa WNW 2.0 mph /  3.2 km/h 4.0 mph /  6.4 km/h 89 % 0.00 in /  0 mm 0 W/m2
01:47 43.0 °F /  6.1 °C 40.0 °F /  4.4 °C 30.35 in /  1027.7 hPa WNW 2.0 mph /  3.2 km/h 4.0 mph /  6.4 km/h 89 % 0.00 in /  0 mm 0 W/m2
01:52 42.6 °F /  5.9 °C 39.6 °F /  4.2 °C 30.35 in /  1027.7 hPa WNW 2.0 mph /  3.2 km/h 4.0 mph /  6.4 km/h 89 % 0.00 in /  0 mm 0 W/m2
01:57 42.6 °F /  5.9 °C 39.6 °F /  4.2 °C 30.35 in /  1027.7 hPa WNW 1.0 mph /  1.6 km/h 4.0 mph /  6.4 km/h 89 % 0.00 in /  0 mm 0 W/m2
02:02 42.6 °F /  5.9 °C 39.9 °F /  4.4 °C 30.34 in /  1027.3 hPa WNW 1.0 mph /  1.6 km/h 2.0 mph /  3.2 km/h 90 % 0.00 in /  0 mm 0 W/m2
02:07 42.6 °F /  5.9 °C 39.9 °F /  4.4 °C 30.34 in /  1027.3 hPa Calm   2.0 mph /  3.2 km/h 90 % 0.00 in /  0 mm 0 W/m2
02:12 42.6 °F /  5.9 °C 39.9 °F /  4.4 °C 30.34 in /  1027.3 hPa Calm   1.0 mph /  1.6 km/h 90 % 0.00 in /  0 mm 0 W/m2
02:17 42.6 °F /  5.9 °C 40.2 °F /  4.6 °C 30.34 in /  1027.3 hPa Calm   1.0 mph /  1.6 km/h 91 % 0.00 in /  0 mm 0 W/m2
02:22 42.4 °F /  5.8 °C 40.0 °F /  4.4 °C 30.34 in /  1027.3 hPa Calm   6.0 mph /  9.7 km/h 91 % 0.00 in /  0 mm 0 W/m2
02:27 42.6 °F /  5.9 °C 40.2 °F /  4.6 °C 30.34 in /  1027.3 hPa West 1.0 mph /  1.6 km/h 6.0 mph /  9.7 km/h 91 % 0.00 in /  0 mm 0 W/m2
02:32 42.6 °F /  5.9 °C 40.2 °F /  4.6 °C 30.33 in /  1027 hPa West 2.0 mph /  3.2 km/h 5.0 mph /  8 km/h 91 % 0.00 in /  0 mm 0 W/m2
02:43 43.2 °F /  6.2 °C 41.0 °F /  5 °C 30.33 in /  1027 hPa WNW 4.0 mph /  6.4 km/h 8.0 mph /  12.9 km/h 92 % 0.00 in /  0 mm 0 W/m2
02:48 43.3 °F /  6.3 °C 41.2 °F /  5.1 °C 30.33 in /  1027 hPa WNW 5.0 mph /  8 km/h 8.0 mph /  12.9 km/h 92 % 0.00 in /  0 mm 0 W/m2
02:53 43.5 °F /  6.4 °C 41.4 °F /  5.2 °C 30.34 in /  1027.3 hPa WNW 5.0 mph /  8 km/h 9.0 mph /  14.5 km/h 92 % 0.00 in /  0 mm 0 W/m2
02:58 43.9 °F /  6.6 °C 41.7 °F /  5.4 °C 30.33 in /  1027 hPa WNW 5.0 mph /  8 km/h 9.0 mph /  14.5 km/h 92 % 0.00 in /  0 mm 0 W/m2
03:03 44.2 °F /  6.8 °C 42.1 °F /  5.6 °C 30.33 in /  1027 hPa WNW 4.0 mph /  6.4 km/h 8.0 mph /  12.9 km/h 92 % 0.00 in /  0 mm 0 W/m2
03:08 44.4 °F /  6.9 °C 42.2 °F /  5.7 °C 30.33 in /  1027 hPa West 3.0 mph /  4.8 km/h 8.0 mph /  12.9 km/h 92 % 0.00 in /  0 mm 0 W/m2
03:13 44.8 °F /  7.1 °C 42.3 °F /  5.7 °C 30.33 in /  1027 hPa West 3.0 mph /  4.8 km/h 7.0 mph /  11.3 km/h 91 % 0.00 in /  0 mm 0 W/m2
03:18 45.0 °F /  7.2 °C 42.5 °F /  5.8 °C 30.33 in /  1027 hPa West 3.0 mph /  4.8 km/h 8.0 mph /  12.9 km/h 91 % 0.00 in /  0 mm 0 W/m2
03:23 45.1 °F /  7.3 °C 42.4 °F /  5.8 °C 30.33 in /  1027 hPa West 3.0 mph /  4.8 km/h 8.0 mph /  12.9 km/h 90 % 0.00 in /  0 mm 0 W/m2
03:28 45.3 °F /  7.4 °C 42.6 °F /  5.9 °C 30.33 in /  1027 hPa West 2.0 mph /  3.2 km/h 6.0 mph /  9.7 km/h 90 % 0.00 in /  0 mm 0 W/m2
03:33 45.3 °F /  7.4 °C 42.6 °F /  5.9 °C 30.33 in /  1027 hPa West 2.0 mph /  3.2 km/h 5.0 mph /  8 km/h 90 % 0.00 in /  0 mm 0 W/m2
03:38 45.5 °F /  7.5 °C 42.7 °F /  5.9 °C 30.33 in /  1027 hPa West 2.0 mph /  3.2 km/h 5.0 mph /  8 km/h 90 % 0.00 in /  0 mm 0 W/m2
03:43 45.7 °F /  7.6 °C 42.9 °F /  6.1 °C 30.33 in /  1027 hPa West 2.0 mph /  3.2 km/h 6.0 mph /  9.7 km/h 90 % 0.00 in /  0 mm 0 W/m2
03:48 45.7 °F /  7.6 °C 42.6 °F /  5.9 °C 30.33 in /  1027 hPa West 3.0 mph /  4.8 km/h 8.0 mph /  12.9 km/h 89 % 0.00 in /  0 mm 0 W/m2
03:53 45.7 °F /  7.6 °C 42.6 °F /  5.9 °C 30.33 in /  1027 hPa West 3.0 mph /  4.8 km/h 8.0 mph /  12.9 km/h 89 % 0.00 in /  0 mm 0 W/m2
03:58 45.9 °F /  7.7 °C 42.8 °F /  6 °C 30.33 in /  1027 hPa West 2.0 mph /  3.2 km/h 6.0 mph /  9.7 km/h 89 % 0.00 in /  0 mm 0 W/m2
04:00 45.9 °F /  7.7 °C 42.8 °F /  6 °C 30.33 in /  1027 hPa WNW 2.0 mph /  3.2 km/h 6.0 mph /  9.7 km/h 89 % 0.00 in /  0 mm 0 W/m2
04:05 45.9 °F /  7.7 °C 42.8 °F /  6 °C 30.33 in /  1027 hPa West 3.0 mph /  4.8 km/h 9.0 mph /  14.5 km/h 89 % 0.00 in /  0 mm 0 W/m2
04:10 46.0 °F /  7.8 °C 43.0 °F /  6.1 °C 30.33 in /  1027 hPa West 4.0 mph /  6.4 km/h 9.0 mph /  14.5 km/h 89 % 0.00 in /  0 mm 0 W/m2
04:15 46.0 °F /  7.8 °C 42.7 °F /  5.9 °C 30.32 in /  1026.6 hPa West 4.0 mph /  6.4 km/h 8.0 mph /  12.9 km/h 88 % 0.00 in /  0 mm 0 W/m2
04:25 46.2 °F /  7.9 °C 42.9 °F /  6.1 °C 30.32 in /  1026.6 hPa West 4.0 mph /  6.4 km/h 8.0 mph /  12.9 km/h 88 % 0.00 in /  0 mm 0 W/m2
04:30 46.2 °F /  7.9 °C 42.9 °F /  6.1 °C 30.32 in /  1026.6 hPa West 4.0 mph /  6.4 km/h 9.0 mph /  14.5 km/h 88 % 0.00 in /  0 mm 0 W/m2
04:35 46.2 °F /  7.9 °C 42.9 °F /  6.1 °C 30.32 in /  1026.6 hPa WNW 5.0 mph /  8 km/h 9.0 mph /  14.5 km/h 88 % 0.00 in /  0 mm 0 W/m2
04:40 46.4 °F /  8 °C 42.7 °F /  5.9 °C 30.32 in /  1026.6 hPa WNW 5.0 mph /  8 km/h 9.0 mph /  14.5 km/h 87 % 0.00 in /  0 mm 0 W/m2
04:45 46.4 °F /  8 °C 42.7 °F /  5.9 °C 30.32 in /  1026.6 hPa WNW 4.0 mph /  6.4 km/h 9.0 mph /  14.5 km/h 87 % 0.00 in /  0 mm 0 W/m2
04:50 46.4 °F /  8 °C 42.7 °F /  5.9 °C 30.32 in /  1026.6 hPa WNW 3.0 mph /  4.8 km/h 9.0 mph /  14.5 km/h 87 % 0.00 in /  0 mm 0 W/m2
04:56 46.6 °F /  8.1 °C 42.9 °F /  6.1 °C 30.32 in /  1026.6 hPa WNW 4.0 mph /  6.4 km/h 9.0 mph /  14.5 km/h 87 % 0.00 in /  0 mm 0 W/m2
05:01 46.6 °F /  8.1 °C 42.9 °F /  6.1 °C 30.32 in /  1026.6 hPa WNW 4.0 mph /  6.4 km/h 8.0 mph /  12.9 km/h 87 % 0.00 in /  0 mm 0 W/m2
05:06 46.6 °F /  8.1 °C 42.9 °F /  6.1 °C 30.32 in /  1026.6 hPa WNW 3.0 mph /  4.8 km/h 8.0 mph /  12.9 km/h 87 % 0.00 in /  0 mm 0 W/m2
05:11 46.6 °F /  8.1 °C 42.9 °F /  6.1 °C 30.32 in /  1026.6 hPa WNW 4.0 mph /  6.4 km/h 12.0 mph /  19.3 km/h 87 % 0.00 in /  0 mm 0 W/m2
05:16 46.6 °F /  8.1 °C 42.9 °F /  6.1 °C 30.32 in /  1026.6 hPa WNW 5.0 mph /  8 km/h 12.0 mph /  19.3 km/h 87 % 0.00 in /  0 mm 0 W/m2
05:21 46.8 °F /  8.2 °C 42.8 °F /  6 °C 30.32 in /  1026.6 hPa WNW 5.0 mph /  8 km/h 9.0 mph /  14.5 km/h 86 % 0.00 in /  0 mm 0 W/m2
05:26 46.8 °F /  8.2 °C 42.8 °F /  6 °C 30.32 in /  1026.6 hPa WNW 4.0 mph /  6.4 km/h 9.0 mph /  14.5 km/h 86 % 0.00 in /  0 mm 0 W/m2
05:31 46.8 °F /  8.2 °C 42.8 °F /  6 °C 30.32 in /  1026.6 hPa WNW 4.0 mph /  6.4 km/h 8.0 mph /  12.9 km/h 86 % 0.00 in /  0 mm 0 W/m2
05:36 46.8 °F /  8.2 °C 42.8 °F /  6 °C 30.32 in /  1026.6 hPa WNW 4.0 mph /  6.4 km/h 8.0 mph /  12.9 km/h 86 % 0.00 in /  0 mm 0 W/m2
05:41 46.8 °F /  8.2 °C 42.8 °F /  6 °C 30.32 in /  1026.6 hPa WNW 4.0 mph /  6.4 km/h 10.0 mph /  16.1 km/h 86 % 0.00 in /  0 mm 0 W/m2
05:46 46.8 °F /  8.2 °C 42.8 °F /  6 °C 30.32 in /  1026.6 hPa WNW 5.0 mph /  8 km/h 10.0 mph /  16.1 km/h 86 % 0.00 in /  0 mm 0 W/m2
05:51 46.8 °F /  8.2 °C 42.8 °F /  6 °C 30.32 in /  1026.6 hPa WNW 4.0 mph /  6.4 km/h 8.0 mph /  12.9 km/h 86 % 0.00 in /  0 mm 0 W/m2
05:56 46.8 °F /  8.2 °C 42.8 °F /  6 °C 30.32 in /  1026.6 hPa WNW 4.0 mph /  6.4 km/h 8.0 mph /  12.9 km/h 86 % 0.00 in /  0 mm 0 W/m2
06:01 46.8 °F /  8.2 °C 42.8 °F /  6 °C 30.32 in /  1026.6 hPa WNW 3.0 mph /  4.8 km/h 7.0 mph /  11.3 km/h 86 % 0.00 in /  0 mm 0 W/m2
06:06 46.8 °F /  8.2 °C 42.8 °F /  6 °C 30.32 in /  1026.6 hPa WNW 3.0 mph /  4.8 km/h 9.0 mph /  14.5 km/h 86 % 0.00 in /  0 mm 0 W/m2
06:11 46.8 °F /  8.2 °C 42.8 °F /  6 °C 30.32 in /  1026.6 hPa WNW 4.0 mph /  6.4 km/h 9.0 mph /  14.5 km/h 86 % 0.00 in /  0 mm 0 W/m2
06:16 46.8 °F /  8.2 °C 42.8 °F /  6 °C 30.32 in /  1026.6 hPa WNW 3.0 mph /  4.8 km/h 6.0 mph /  9.7 km/h 86 % 0.00 in /  0 mm 0 W/m2
06:21 46.8 °F /  8.2 °C 42.8 °F /  6 °C 30.32 in /  1026.6 hPa WNW 3.0 mph /  4.8 km/h 6.0 mph /  9.7 km/h 86 % 0.00 in /  0 mm 0 W/m2
06:26 46.8 °F /  8.2 °C 42.8 °F /  6 °C 30.32 in /  1026.6 hPa WNW 3.0 mph /  4.8 km/h 7.0 mph /  11.3 km/h 86 % 0.00 in /  0 mm 0 W/m2
06:31 46.8 °F /  8.2 °C 42.8 °F /  6 °C 30.32 in /  1026.6 hPa WNW 3.0 mph /  4.8 km/h 7.0 mph /  11.3 km/h 86 % 0.00 in /  0 mm 0 W/m2
06:41 46.8 °F /  8.2 °C 42.8 °F /  6 °C 30.32 in /  1026.6 hPa WNW 2.0 mph /  3.2 km/h 7.0 mph /  11.3 km/h 86 % 0.00 in /  0 mm 7 W/m2
06:46 46.8 °F /  8.2 °C 42.8 °F /  6 °C 30.32 in /  1026.6 hPa WNW 2.0 mph /  3.2 km/h 7.0 mph /  11.3 km/h 86 % 0.00 in /  0 mm 9 W/m2
06:51 46.8 °F /  8.2 °C 42.8 °F /  6 °C 30.32 in /  1026.6 hPa WNW 2.0 mph /  3.2 km/h 6.0 mph /  9.7 km/h 86 % 0.00 in /  0 mm 11 W/m2
06:56 46.8 °F /  8.2 °C 42.8 °F /  6 °C 30.32 in /  1026.6 hPa NW 2.0 mph /  3.2 km/h 8.0 mph /  12.9 km/h 86 % 0.00 in /  0 mm 12 W/m2
07:01 46.8 °F /  8.2 °C 42.5 °F /  5.8 °C 30.32 in /  1026.6 hPa WNW 3.0 mph /  4.8 km/h 8.0 mph /  12.9 km/h 85 % 0.00 in /  0 mm 12 W/m2
07:07 46.9 °F /  8.3 °C 42.7 °F /  5.9 °C 30.32 in /  1026.6 hPa WNW 3.0 mph /  4.8 km/h 7.0 mph /  11.3 km/h 85 % 0.00 in /  0 mm 16 W/m2
07:12 46.9 °F /  8.3 °C 42.4 °F /  5.8 °C 30.33 in /  1027 hPa NW 3.0 mph /  4.8 km/h 7.0 mph /  11.3 km/h 84 % 0.00 in /  0 mm 19 W/m2
07:17 46.9 °F /  8.3 °C 42.4 °F /  5.8 °C 30.33 in /  1027 hPa NW 3.0 mph /  4.8 km/h 8.0 mph /  12.9 km/h 84 % 0.00 in /  0 mm 23 W/m2
07:22 47.1 °F /  8.4 °C 42.5 °F /  5.8 °C 30.33 in /  1027 hPa NW 4.0 mph /  6.4 km/h 8.0 mph /  12.9 km/h 84 % 0.00 in /  0 mm 23 W/m2
07:27 47.1 °F /  8.4 °C 42.5 °F /  5.8 °C 30.32 in /  1026.6 hPa WNW 3.0 mph /  4.8 km/h 6.0 mph /  9.7 km/h 84 % 0.00 in /  0 mm 28 W/m2
07:32 47.1 °F /  8.4 °C 42.2 °F /  5.7 °C 30.33 in /  1027 hPa WNW 3.0 mph /  4.8 km/h 9.0 mph /  14.5 km/h 83 % 0.00 in /  0 mm 32 W/m2
07:37 47.3 °F /  8.5 °C 42.4 °F /  5.8 °C 30.33 in /  1027 hPa NW 4.0 mph /  6.4 km/h 9.0 mph /  14.5 km/h 83 % 0.00 in /  0 mm 42 W/m2
07:42 47.3 °F /  8.5 °C 42.1 °F /  5.6 °C 30.33 in /  1027 hPa NW 4.0 mph /  6.4 km/h 9.0 mph /  14.5 km/h 82 % 0.00 in /  0 mm 32 W/m2
07:47 47.5 °F /  8.6 °C 42.3 °F /  5.7 °C 30.33 in /  1027 hPa NW 4.0 mph /  6.4 km/h 9.0 mph /  14.5 km/h 82 % 0.00 in /  0 mm 32 W/m2
07:52 47.5 °F /  8.6 °C 41.9 °F /  5.5 °C 30.33 in /  1027 hPa NW 4.0 mph /  6.4 km/h 11.0 mph /  17.7 km/h 81 % 0.00 in /  0 mm 35 W/m2
07:57 47.5 °F /  8.6 °C 41.6 °F /  5.3 °C 30.33 in /  1027 hPa NW 5.0 mph /  8 km/h 11.0 mph /  17.7 km/h 80 % 0.00 in /  0 mm 42 W/m2
08:02 47.5 °F /  8.6 °C 41.6 °F /  5.3 °C 30.33 in /  1027 hPa NW 4.0 mph /  6.4 km/h 9.0 mph /  14.5 km/h 80 % 0.00 in /  0 mm 54 W/m2
08:07 47.7 °F /  8.7 °C 41.8 °F /  5.4 °C 30.33 in /  1027 hPa NW 4.0 mph /  6.4 km/h 9.0 mph /  14.5 km/h 80 % 0.00 in /  0 mm 49 W/m2
08:12 47.7 °F /  8.7 °C 41.8 °F /  5.4 °C 30.33 in /  1027 hPa NW 5.0 mph /  8 km/h 11.0 mph /  17.7 km/h 80 % 0.00 in /  0 mm 51 W/m2
08:17 47.7 °F /  8.7 °C 41.5 °F /  5.3 °C 30.33 in /  1027 hPa NW 6.0 mph /  9.7 km/h 11.0 mph /  17.7 km/h 79 % 0.00 in /  0 mm 56 W/m2
08:22 47.8 °F /  8.8 °C 41.3 °F /  5.2 °C 30.33 in /  1027 hPa NW 6.0 mph /  9.7 km/h 12.0 mph /  19.3 km/h 78 % 0.00 in /  0 mm 79 W/m2
08:27 47.8 °F /  8.8 °C 41.3 °F /  5.2 °C 30.33 in /  1027 hPa NW 6.0 mph /  9.7 km/h 12.0 mph /  19.3 km/h 78 % 0.00 in /  0 mm 67 W/m2
08:32 47.8 °F /  8.8 °C 41.3 °F /  5.2 °C 30.33 in /  1027 hPa NW 5.0 mph /  8 km/h 11.0 mph /  17.7 km/h 78 % 0.00 in /  0 mm 63 W/m2
08:37 48.0 °F /  8.9 °C 41.5 °F /  5.3 °C 30.33 in /  1027 hPa NW 3.0 mph /  4.8 km/h 8.0 mph /  12.9 km/h 78 % 0.00 in /  0 mm 63 W/m2
08:42 48.0 °F /  8.9 °C 41.5 °F /  5.3 °C 30.33 in /  1027 hPa WNW 3.0 mph /  4.8 km/h 7.0 mph /  11.3 km/h 78 % 0.00 in /  0 mm 65 W/m2
08:47 48.2 °F /  9 °C 41.7 °F /  5.4 °C 30.33 in /  1027 hPa WNW 3.0 mph /  4.8 km/h 8.0 mph /  12.9 km/h 78 % 0.00 in /  0 mm 69 W/m2
08:52 48.4 °F /  9.1 °C 41.8 °F /  5.4 °C 30.33 in /  1027 hPa WNW 3.0 mph /  4.8 km/h 8.0 mph /  12.9 km/h 78 % 0.00 in /  0 mm 69 W/m2
09:02 48.4 °F /  9.1 °C 41.5 °F /  5.3 °C 30.33 in /  1027 hPa WNW 4.0 mph /  6.4 km/h 9.0 mph /  14.5 km/h 77 % 0.00 in /  0 mm 81 W/m2
09:07 48.4 °F /  9.1 °C 41.5 °F /  5.3 °C 30.33 in /  1027 hPa WNW 5.0 mph /  8 km/h 10.0 mph /  16.1 km/h 77 % 0.00 in /  0 mm 81 W/m2
09:12 48.4 °F /  9.1 °C 41.5 °F /  5.3 °C 30.33 in /  1027 hPa WNW 6.0 mph /  9.7 km/h 13.0 mph /  20.9 km/h 77 % 0.00 in /  0 mm 88 W/m2
09:17 48.4 °F /  9.1 °C 41.2 °F /  5.1 °C 30.33 in /  1027 hPa WNW 7.0 mph /  11.3 km/h 13.0 mph /  20.9 km/h 76 % 0.00 in /  0 mm 95 W/m2
09:22 48.4 °F /  9.1 °C 41.2 °F /  5.1 °C 30.33 in /  1027 hPa WNW 7.0 mph /  11.3 km/h 12.0 mph /  19.3 km/h 76 % 0.00 in /  0 mm 97 W/m2
09:32 48.4 °F /  9.1 °C 40.8 °F /  4.9 °C 30.33 in /  1027 hPa WNW 6.0 mph /  9.7 km/h 12.0 mph /  19.3 km/h 75 % 0.00 in /  0 mm 116 W/m2
09:37 48.4 °F /  9.1 °C 40.8 °F /  4.9 °C 30.33 in /  1027 hPa NW 7.0 mph /  11.3 km/h 13.0 mph /  20.9 km/h 75 % 0.00 in /  0 mm 116 W/m2
09:42 48.6 °F /  9.2 °C 41.0 °F /  5 °C 30.33 in /  1027 hPa NW 6.0 mph /  9.7 km/h 13.0 mph /  20.9 km/h 75 % 0.00 in /  0 mm 111 W/m2
09:47 48.6 °F /  9.2 °C 40.6 °F /  4.8 °C 30.33 in /  1027 hPa NW 6.0 mph /  9.7 km/h 12.0 mph /  19.3 km/h 74 % 0.00 in /  0 mm 116 W/m2
09:52 48.6 °F /  9.2 °C 40.6 °F /  4.8 °C 30.33 in /  1027 hPa NW 6.0 mph /  9.7 km/h 12.0 mph /  19.3 km/h 74 % 0.00 in /  0 mm 107 W/m2
09:57 48.6 °F /  9.2 °C 41.0 °F /  5 °C 30.33 in /  1027 hPa NW 5.0 mph /  8 km/h 10.0 mph /  16.1 km/h 75 % 0.00 in /  0 mm 100 W/m2
10:02 48.7 °F /  9.3 °C 41.2 °F /  5.1 °C 30.33 in /  1027 hPa NW 5.0 mph /  8 km/h 11.0 mph /  17.7 km/h 75 % 0.00 in /  0 mm 98 W/m2
10:03 48.7 °F /  9.3 °C 41.2 °F /  5.1 °C 30.33 in /  1027 hPa NW 5.0 mph /  8 km/h 11.0 mph /  17.7 km/h 75 % 0.00 in /  0 mm 100 W/m2
10:08 48.7 °F /  9.3 °C 41.2 °F /  5.1 °C 30.34 in /  1027.3 hPa NW 5.0 mph /  8 km/h 11.0 mph /  17.7 km/h 75 % 0.00 in /  0 mm 105 W/m2
10:13 48.7 °F /  9.3 °C 41.2 °F /  5.1 °C 30.34 in /  1027.3 hPa NW 5.0 mph /  8 km/h 10.0 mph /  16.1 km/h 75 % 0.00 in /  0 mm 102 W/m2
10:18 48.9 °F /  9.4 °C 41.3 °F /  5.2 °C 30.34 in /  1027.3 hPa WNW 5.0 mph /  8 km/h 11.0 mph /  17.7 km/h 75 % 0.00 in /  0 mm 105 W/m2
10:23 48.9 °F /  9.4 °C 41.0 °F /  5 °C 30.34 in /  1027.3 hPa WNW 5.0 mph /  8 km/h 11.0 mph /  17.7 km/h 74 % 0.00 in /  0 mm 113 W/m2
10:28 48.9 °F /  9.4 °C 41.0 °F /  5 °C 30.34 in /  1027.3 hPa NW 6.0 mph /  9.7 km/h 10.0 mph /  16.1 km/h 74 % 0.00 in /  0 mm 128 W/m2
10:33 48.9 °F /  9.4 °C 40.6 °F /  4.8 °C 30.34 in /  1027.3 hPa NW 6.0 mph /  9.7 km/h 10.0 mph /  16.1 km/h 73 % 0.00 in /  0 mm 127 W/m2
10:38 48.9 °F /  9.4 °C 40.6 °F /  4.8 °C 30.34 in /  1027.3 hPa NW 6.0 mph /  9.7 km/h 10.0 mph /  16.1 km/h 73 % 0.00 in /  0 mm 134 W/m2
10:43 48.9 °F /  9.4 °C 40.6 °F /  4.8 °C 30.34 in /  1027.3 hPa NW 5.0 mph /  8 km/h 9.0 mph /  14.5 km/h 73 % 0.00 in /  0 mm 134 W/m2
10:48 48.9 °F /  9.4 °C 40.6 °F /  4.8 °C 30.34 in /  1027.3 hPa NW 5.0 mph /  8 km/h 11.0 mph /  17.7 km/h 73 % 0.00 in /  0 mm 141 W/m2
10:53 49.1 °F /  9.5 °C 40.1 °F /  4.5 °C 30.34 in /  1027.3 hPa NW 6.0 mph /  9.7 km/h 14.0 mph /  22.5 km/h 71 % 0.00 in /  0 mm 151 W/m2
10:58 49.1 °F /  9.5 °C 40.5 °F /  4.7 °C 30.34 in /  1027.3 hPa NW 6.0 mph /  9.7 km/h 14.0 mph /  22.5 km/h 72 % 0.00 in /  0 mm 163 W/m2
11:03 49.3 °F /  9.6 °C 40.6 °F /  4.8 °C 30.34 in /  1027.3 hPa NW 6.0 mph /  9.7 km/h 11.0 mph /  17.7 km/h 72 % 0.00 in /  0 mm 165 W/m2
11:08 49.3 °F /  9.6 °C 40.6 °F /  4.8 °C 30.34 in /  1027.3 hPa NW 5.0 mph /  8 km/h 11.0 mph /  17.7 km/h 72 % 0.00 in /  0 mm 169 W/m2
11:13 49.5 °F /  9.7 °C 40.8 °F /  4.9 °C 30.34 in /  1027.3 hPa WNW 5.0 mph /  8 km/h 10.0 mph /  16.1 km/h 72 % 0.00 in /  0 mm 165 W/m2
11:18 49.6 °F /  9.8 °C 40.6 °F /  4.8 °C 30.34 in /  1027.3 hPa NW 5.0 mph /  8 km/h 11.0 mph /  17.7 km/h 71 % 0.00 in /  0 mm 155 W/m2
11:28 49.8 °F /  9.9 °C 40.8 °F /  4.9 °C 30.34 in /  1027.3 hPa WNW 4.0 mph /  6.4 km/h 8.0 mph /  12.9 km/h 71 % 0.00 in /  0 mm 165 W/m2
11:33 49.8 °F /  9.9 °C 40.8 °F /  4.9 °C 30.34 in /  1027.3 hPa West 6.0 mph /  9.7 km/h 12.0 mph /  19.3 km/h 71 % 0.00 in /  0 mm 179 W/m2
11:38 49.6 °F /  9.8 °C 40.3 °F /  4.6 °C 30.34 in /  1027.3 hPa West 7.0 mph /  11.3 km/h 12.0 mph /  19.3 km/h 70 % 0.00 in /  0 mm 174 W/m2
11:43 49.6 °F /  9.8 °C 40.6 °F /  4.8 °C 30.34 in /  1027.3 hPa West 7.0 mph /  11.3 km/h 11.0 mph /  17.7 km/h 71 % 0.00 in /  0 mm 204 W/m2
11:48 49.8 °F /  9.9 °C 40.4 °F /  4.7 °C 30.34 in /  1027.3 hPa WNW 7.0 mph /  11.3 km/h 11.0 mph /  17.7 km/h 70 % 0.00 in /  0 mm 185 W/m2
11:53 49.8 °F /  9.9 °C 40.4 °F /  4.7 °C 30.34 in /  1027.3 hPa WNW 6.0 mph /  9.7 km/h 11.0 mph /  17.7 km/h 70 % 0.00 in /  0 mm 186 W/m2
11:58 50.0 °F /  10 °C 41.0 °F /  5 °C 30.34 in /  1027.3 hPa WNW 5.0 mph /  8 km/h 11.0 mph /  17.7 km/h 71 % 0.00 in /  0 mm 176 W/m2
12:04 50.2 °F /  10.1 °C 41.1 °F /  5.1 °C 30.34 in /  1027.3 hPa WNW 5.0 mph /  8 km/h 11.0 mph /  17.7 km/h 71 % 0.00 in /  0 mm 199 W/m2
12:09 50.4 °F /  10.2 °C 40.9 °F /  4.9 °C 30.34 in /  1027.3 hPa WNW 5.0 mph /  8 km/h 12.0 mph /  19.3 km/h 70 % 0.00 in /  0 mm 192 W/m2
12:14 50.4 °F /  10.2 °C 40.9 °F /  4.9 °C 30.33 in /  1027 hPa WNW 7.0 mph /  11.3 km/h 12.0 mph /  19.3 km/h 70 % 0.00 in /  0 mm 202 W/m2
12:19 50.4 °F /  10.2 °C 40.9 °F /  4.9 °C 30.34 in /  1027.3 hPa WNW 7.0 mph /  11.3 km/h 12.0 mph /  19.3 km/h 70 % 0.00 in /  0 mm 213 W/m2
12:24 50.4 °F /  10.2 °C 40.9 °F /  4.9 °C 30.33 in /  1027 hPa WNW 7.0 mph /  11.3 km/h 12.0 mph /  19.3 km/h 70 % 0.00 in /  0 mm 230 W/m2
12:29 50.5 °F /  10.3 °C 40.7 °F /  4.8 °C 30.33 in /  1027 hPa WNW 7.0 mph /  11.3 km/h 12.0 mph /  19.3 km/h 69 % 0.00 in /  0 mm 229 W/m2
12:34 50.5 °F /  10.3 °C 40.7 °F /  4.8 °C 30.33 in /  1027 hPa NW 7.0 mph /  11.3 km/h 14.0 mph /  22.5 km/h 69 % 0.00 in /  0 mm 257 W/m2
12:39 50.5 °F /  10.3 °C 40.4 °F /  4.7 °C 30.33 in /  1027 hPa WNW 7.0 mph /  11.3 km/h 14.0 mph /  22.5 km/h 68 % 0.00 in /  0 mm 243 W/m2
12:44 50.7 °F /  10.4 °C 40.9 °F /  4.9 °C 30.33 in /  1027 hPa WNW 7.0 mph /  11.3 km/h 13.0 mph /  20.9 km/h 69 % 0.00 in /  0 mm 221 W/m2
12:49 50.7 °F /  10.4 °C 40.5 °F /  4.7 °C 30.33 in /  1027 hPa WNW 7.0 mph /  11.3 km/h 13.0 mph /  20.9 km/h 68 % 0.00 in /  0 mm 207 W/m2
12:54 50.7 °F /  10.4 °C 40.9 °F /  4.9 °C 30.33 in /  1027 hPa WNW 7.0 mph /  11.3 km/h 12.0 mph /  19.3 km/h 69 % 0.00 in /  0 mm 204 W/m2
12:59 50.7 °F /  10.4 °C 40.5 °F /  4.7 °C 30.33 in /  1027 hPa WNW 7.0 mph /  11.3 km/h 11.0 mph /  17.7 km/h 68 % 0.00 in /  0 mm 241 W/m2
13:04 50.7 °F /  10.4 °C 40.5 °F /  4.7 °C 30.33 in /  1027 hPa WNW 7.0 mph /  11.3 km/h 11.0 mph /  17.7 km/h 68 % 0.00 in /  0 mm 265 W/m2
13:09 51.1 °F /  10.6 °C 40.5 °F /  4.7 °C 30.33 in /  1027 hPa WNW 6.0 mph /  9.7 km/h 11.0 mph /  17.7 km/h 67 % 0.00 in /  0 mm 262 W/m2
13:14 51.1 °F /  10.6 °C 40.5 °F /  4.7 °C 30.33 in /  1027 hPa WNW 6.0 mph /  9.7 km/h 11.0 mph /  17.7 km/h 67 % 0.00 in /  0 mm 230 W/m2
13:19 51.3 °F /  10.7 °C 40.7 °F /  4.8 °C 30.32 in /  1026.6 hPa NW 6.0 mph /  9.7 km/h 14.0 mph /  22.5 km/h 67 % 0.00 in /  0 mm 272 W/m2
13:24 51.3 °F /  10.7 °C 40.7 °F /  4.8 °C 30.32 in /  1026.6 hPa NW 7.0 mph /  11.3 km/h 14.0 mph /  22.5 km/h 67 % 0.00 in /  0 mm 279 W/m2
13:29 51.3 °F /  10.7 °C 40.7 °F /  4.8 °C 30.32 in /  1026.6 hPa NW 6.0 mph /  9.7 km/h 11.0 mph /  17.7 km/h 67 % 0.00 in /  0 mm 294 W/m2
13:34 51.4 °F /  10.8 °C 40.8 °F /  4.9 °C 30.32 in /  1026.6 hPa NW 4.0 mph /  6.4 km/h 10.0 mph /  16.1 km/h 67 % 0.00 in /  0 mm 299 W/m2
13:40 51.8 °F /  11 °C 41.2 °F /  5.1 °C 30.32 in /  1026.6 hPa NW 4.0 mph /  6.4 km/h 9.0 mph /  14.5 km/h 67 % 0.00 in /  0 mm 316 W/m2
13:45 52.0 °F /  11.1 °C 41.0 °F /  5 °C 30.32 in /  1026.6 hPa NW 6.0 mph /  9.7 km/h 12.0 mph /  19.3 km/h 66 % 0.00 in /  0 mm 329 W/m2
13:50 52.2 °F /  11.2 °C 40.7 °F /  4.8 °C 30.32 in /  1026.6 hPa WNW 7.0 mph /  11.3 km/h 12.0 mph /  19.3 km/h 65 % 0.00 in /  0 mm 308 W/m2
13:55 52.3 °F /  11.3 °C 40.5 °F /  4.7 °C 30.32 in /  1026.6 hPa WNW 7.0 mph /  11.3 km/h 11.0 mph /  17.7 km/h 64 % 0.00 in /  0 mm 357 W/m2
14:00 52.3 °F /  11.3 °C 40.1 °F /  4.5 °C 30.32 in /  1026.6 hPa WNW 7.0 mph /  11.3 km/h 12.0 mph /  19.3 km/h 63 % 0.00 in /  0 mm 346 W/m2
14:10 52.7 °F /  11.5 °C 41.3 °F /  5.2 °C 30.31 in /  1026.3 hPa NW 6.0 mph /  9.7 km/h 12.0 mph /  19.3 km/h 65 % 0.00 in /  0 mm 466 W/m2
14:15 53.1 °F /  11.7 °C 41.2 °F /  5.1 °C 30.31 in /  1026.3 hPa WNW 6.0 mph /  9.7 km/h 12.0 mph /  19.3 km/h 64 % 0.00 in /  0 mm 540 W/m2
14:20 54.0 °F /  12.2 °C 41.6 °F /  5.3 °C 30.31 in /  1026.3 hPa West 7.0 mph /  11.3 km/h 20.0 mph /  32.2 km/h 63 % 0.00 in /  0 mm 1011 W/m2
14:25 54.9 °F /  12.7 °C 41.7 °F /  5.4 °C 30.31 in /  1026.3 hPa West 8.0 mph /  12.9 km/h 20.0 mph /  32.2 km/h 61 % 0.00 in /  0 mm 895 W/m2
14:30 55.2 °F /  12.9 °C 41.6 °F /  5.3 °C 30.31 in /  1026.3 hPa West 7.0 mph /  11.3 km/h 13.0 mph /  20.9 km/h 60 % 0.00 in /  0 mm 826 W/m2
14:35 55.4 °F /  13 °C 41.7 °F /  5.4 °C 30.31 in /  1026.3 hPa WSW 7.0 mph /  11.3 km/h 13.0 mph /  20.9 km/h 60 % 0.00 in /  0 mm 981 W/m2
14:40 55.8 °F /  13.2 °C 42.1 °F /  5.6 °C 30.31 in /  1026.3 hPa WSW 7.0 mph /  11.3 km/h 13.0 mph /  20.9 km/h 60 % 0.00 in /  0 mm 875 W/m2
14:51 56.5 °F /  13.6 °C 42.3 °F /  5.7 °C 30.31 in /  1026.3 hPa West 7.0 mph /  11.3 km/h 11.0 mph /  17.7 km/h 59 % 0.00 in /  0 mm 939 W/m2
14:56 57.0 °F /  13.9 °C 42.4 °F /  5.8 °C 30.30 in /  1026 hPa West 7.0 mph /  11.3 km/h 11.0 mph /  17.7 km/h 58 % 0.00 in /  0 mm 846 W/m2
15:01 57.0 °F /  13.9 °C 41.9 °F /  5.5 °C 30.30 in /  1026 hPa West 8.0 mph /  12.9 km/h 13.0 mph /  20.9 km/h 57 % 0.00 in /  0 mm 889 W/m2
15:04 57.0 °F /  13.9 °C 41.9 °F /  5.5 °C 30.30 in /  1026 hPa West 8.0 mph /  12.9 km/h 13.0 mph /  20.9 km/h 57 % 0.00 in /  0 mm 350 W/m2
15:09 57.0 °F /  13.9 °C 41.9 °F /  5.5 °C 30.30 in /  1026 hPa WNW 6.0 mph /  9.7 km/h 11.0 mph /  17.7 km/h 57 % 0.00 in /  0 mm 341 W/m2
15:14 57.0 °F /  13.9 °C 42.4 °F /  5.8 °C 30.30 in /  1026 hPa NNW 5.0 mph /  8 km/h 13.0 mph /  20.9 km/h 58 % 0.00 in /  0 mm 492 W/m2
15:19 56.8 °F /  13.8 °C 42.2 °F /  5.7 °C 30.29 in /  1025.6 hPa NNW 6.0 mph /  9.7 km/h 13.0 mph /  20.9 km/h 58 % 0.00 in /  0 mm 788 W/m2
15:24 56.7 °F /  13.7 °C 42.0 °F /  5.6 °C 30.29 in /  1025.6 hPa NW 4.0 mph /  6.4 km/h 12.0 mph /  19.3 km/h 58 % 0.00 in /  0 mm 802 W/m2
15:29 57.0 °F /  13.9 °C 41.9 °F /  5.5 °C 30.29 in /  1025.6 hPa NW 5.0 mph /  8 km/h 12.0 mph /  19.3 km/h 57 % 0.00 in /  0 mm 773 W/m2
15:34 57.4 °F /  14.1 °C 42.7 °F /  5.9 °C 30.29 in /  1025.6 hPa WNW 6.0 mph /  9.7 km/h 12.0 mph /  19.3 km/h 58 % 0.00 in /  0 mm 724 W/m2
15:39 57.7 °F /  14.3 °C 42.6 °F /  5.9 °C 30.29 in /  1025.6 hPa WNW 6.0 mph /  9.7 km/h 12.0 mph /  19.3 km/h 57 % 0.00 in /  0 mm 677 W/m2
15:49 57.4 °F /  14.1 °C 41.8 °F /  5.4 °C 30.28 in /  1025.3 hPa WSW 7.0 mph /  11.3 km/h 12.0 mph /  19.3 km/h 56 % 0.00 in /  0 mm 617 W/m2
15:54 57.0 °F /  13.9 °C 41.5 °F /  5.3 °C 30.28 in /  1025.3 hPa WSW 7.0 mph /  11.3 km/h 12.0 mph /  19.3 km/h 56 % 0.00 in /  0 mm 654 W/m2
15:59 57.4 °F /  14.1 °C 42.3 °F /  5.7 °C 30.28 in /  1025.3 hPa West 6.0 mph /  9.7 km/h 12.0 mph /  19.3 km/h 57 % 0.00 in /  0 mm 636 W/m2
16:04 57.7 °F /  14.3 °C 42.1 °F /  5.6 °C 30.28 in /  1025.3 hPa NW 6.0 mph /  9.7 km/h 12.0 mph /  19.3 km/h 56 % 0.00 in /  0 mm 603 W/m2
16:09 57.7 °F /  14.3 °C 42.6 °F /  5.9 °C 30.28 in /  1025.3 hPa NW 6.0 mph /  9.7 km/h 11.0 mph /  17.7 km/h 57 % 0.00 in /  0 mm 577 W/m2
16:14 57.6 °F /  14.2 °C 42.4 °F /  5.8 °C 30.28 in /  1025.3 hPa NW 7.0 mph /  11.3 km/h 12.0 mph /  19.3 km/h 57 % 0.00 in /  0 mm 571 W/m2
16:19 57.7 °F /  14.3 °C 42.1 °F /  5.6 °C 30.28 in /  1025.3 hPa NW 7.0 mph /  11.3 km/h 12.0 mph /  19.3 km/h 56 % 0.00 in /  0 mm 499 W/m2
16:24 57.7 °F /  14.3 °C 41.7 °F /  5.4 °C 30.27 in /  1024.9 hPa WNW 7.0 mph /  11.3 km/h 12.0 mph /  19.3 km/h 55 % 0.00 in /  0 mm 496 W/m2
16:29 57.4 °F /  14.1 °C 41.8 °F /  5.4 °C 30.28 in /  1025.3 hPa WNW 6.0 mph /  9.7 km/h 11.0 mph /  17.7 km/h 56 % 0.00 in /  0 mm 485 W/m2
16:34 57.4 °F /  14.1 °C 41.8 °F /  5.4 °C 30.27 in /  1024.9 hPa WNW 4.0 mph /  6.4 km/h 11.0 mph /  17.7 km/h 56 % 0.00 in /  0 mm 480 W/m2
16:39 57.2 °F /  14 °C 42.1 °F /  5.6 °C 30.27 in /  1024.9 hPa NW 3.0 mph /  4.8 km/h 10.0 mph /  16.1 km/h 57 % 0.00 in /  0 mm 448 W/m2
16:44 57.2 °F /  14 °C 42.1 °F /  5.6 °C 30.27 in /  1024.9 hPa NW 5.0 mph /  8 km/h 10.0 mph /  16.1 km/h 57 % 0.00 in /  0 mm 443 W/m2
16:45 57.2 °F /  14 °C 42.1 °F /  5.6 °C 30.27 in /  1024.9 hPa NNW 5.0 mph /  8 km/h 10.0 mph /  16.1 km/h 57 % 0.00 in /  0 mm 441 W/m2
16:50 57.4 °F /  14.1 °C 42.3 °F /  5.7 °C 30.27 in /  1024.9 hPa NNW 4.0 mph /  6.4 km/h 10.0 mph /  16.1 km/h 57 % 0.00 in /  0 mm 425 W/m2
16:55 57.4 °F /  14.1 °C 41.8 °F /  5.4 °C 30.27 in /  1024.9 hPa WNW 4.0 mph /  6.4 km/h 11.0 mph /  17.7 km/h 56 % 0.00 in /  0 mm 415 W/m2
17:00 57.6 °F /  14.2 °C 42.0 °F /  5.6 °C 30.27 in /  1024.9 hPa WNW 6.0 mph /  9.7 km/h 11.0 mph /  17.7 km/h 56 % 0.00 in /  0 mm 404 W/m2
17:05 57.7 °F /  14.3 °C 42.1 °F /  5.6 °C 30.26 in /  1024.6 hPa NW 5.0 mph /  8 km/h 12.0 mph /  19.3 km/h 56 % 0.00 in /  0 mm 388 W/m2
17:15 57.7 °F /  14.3 °C 42.1 °F /  5.6 °C 30.26 in /  1024.6 hPa WNW 6.0 mph /  9.7 km/h 11.0 mph /  17.7 km/h 56 % 0.00 in /  0 mm 357 W/m2
17:20 57.6 °F /  14.2 °C 42.0 °F /  5.6 °C 30.26 in /  1024.6 hPa NW 6.0 mph /  9.7 km/h 11.0 mph /  17.7 km/h 56 % 0.00 in /  0 mm 343 W/m2
17:25 57.6 °F /  14.2 °C 42.0 °F /  5.6 °C 30.26 in /  1024.6 hPa WNW 5.0 mph /  8 km/h 10.0 mph /  16.1 km/h 56 % 0.00 in /  0 mm 330 W/m2
17:30 57.7 °F /  14.3 °C 41.7 °F /  5.4 °C 30.27 in /  1024.9 hPa WNW 5.0 mph /  8 km/h 11.0 mph /  17.7 km/h 55 % 0.00 in /  0 mm 315 W/m2
17:35 57.7 °F /  14.3 °C 41.7 °F /  5.4 °C 30.26 in /  1024.6 hPa WNW 6.0 mph /  9.7 km/h 11.0 mph /  17.7 km/h 55 % 0.00 in /  0 mm 297 W/m2
17:40 57.6 °F /  14.2 °C 42.0 °F /  5.6 °C 30.26 in /  1024.6 hPa WNW 5.0 mph /  8 km/h 11.0 mph /  17.7 km/h 56 % 0.00 in /  0 mm 288 W/m2
17:45 57.4 °F /  14.1 °C 41.3 °F /  5.2 °C 30.26 in /  1024.6 hPa WNW 5.0 mph /  8 km/h 10.0 mph /  16.1 km/h 55 % 0.00 in /  0 mm 272 W/m2
17:50 57.2 °F /  14 °C 41.2 °F /  5.1 °C 30.26 in /  1024.6 hPa WNW 5.0 mph /  8 km/h 10.0 mph /  16.1 km/h 55 % 0.00 in /  0 mm 260 W/m2
17:55 57.0 °F /  13.9 °C 41.9 °F /  5.5 °C 30.26 in /  1024.6 hPa WNW 4.0 mph /  6.4 km/h 8.0 mph /  12.9 km/h 57 % 0.00 in /  0 mm 244 W/m2
18:00 57.0 °F /  13.9 °C 41.9 °F /  5.5 °C 30.26 in /  1024.6 hPa NW 3.0 mph /  4.8 km/h 8.0 mph /  12.9 km/h 57 % 0.00 in /  0 mm 232 W/m2
18:05 56.8 °F /  13.8 °C 41.8 °F /  5.4 °C 30.27 in /  1024.9 hPa NNW 3.0 mph /  4.8 km/h 9.0 mph /  14.5 km/h 57 % 0.00 in /  0 mm 218 W/m2
18:10 56.7 °F /  13.7 °C 42.0 °F /  5.6 °C 30.27 in /  1024.9 hPa NNW 3.0 mph /  4.8 km/h 9.0 mph /  14.5 km/h 58 % 0.00 in /  0 mm 204 W/m2
18:15 56.5 °F /  13.6 °C 42.3 °F /  5.7 °C 30.26 in /  1024.6 hPa NW 3.0 mph /  4.8 km/h 7.0 mph /  11.3 km/h 59 % 0.00 in /  0 mm 192 W/m2
18:20 56.7 °F /  13.7 °C 42.5 °F /  5.8 °C 30.26 in /  1024.6 hPa WNW 4.0 mph /  6.4 km/h 10.0 mph /  16.1 km/h 59 % 0.00 in /  0 mm 178 W/m2
18:25 56.5 °F /  13.6 °C 41.9 °F /  5.5 °C 30.26 in /  1024.6 hPa NW 5.0 mph /  8 km/h 10.0 mph /  16.1 km/h 58 % 0.00 in /  0 mm 163 W/m2
18:30 56.1 °F /  13.4 °C 42.0 °F /  5.6 °C 30.26 in /  1024.6 hPa NNW 5.0 mph /  8 km/h 9.0 mph /  14.5 km/h 59 % 0.00 in /  0 mm 151 W/m2
18:35 55.9 °F /  13.3 °C 41.4 °F /  5.2 °C 30.26 in /  1024.6 hPa NNW 5.0 mph /  8 km/h 9.0 mph /  14.5 km/h 58 % 0.00 in /  0 mm 139 W/m2
18:40 55.8 °F /  13.2 °C 41.6 °F /  5.3 °C 30.26 in /  1024.6 hPa NNW 5.0 mph /  8 km/h 9.0 mph /  14.5 km/h 59 % 0.00 in /  0 mm 127 W/m2
18:50 55.0 °F /  12.8 °C 41.4 °F /  5.2 °C 30.27 in /  1024.9 hPa NW 5.0 mph /  8 km/h 9.0 mph /  14.5 km/h 60 % 0.00 in /  0 mm 95 W/m2
18:55 54.9 °F /  12.7 °C 41.7 °F /  5.4 °C 30.26 in /  1024.6 hPa NW 5.0 mph /  8 km/h 8.0 mph /  12.9 km/h 61 % 0.00 in /  0 mm 84 W/m2
19:00 54.3 °F /  12.4 °C 41.1 °F /  5.1 °C 30.26 in /  1024.6 hPa NNW 4.0 mph /  6.4 km/h 8.0 mph /  12.9 km/h 61 % 0.00 in /  0 mm 72 W/m2
19:05 54.0 °F /  12.2 °C 41.2 °F /  5.1 °C 30.27 in /  1024.9 hPa NNW 4.0 mph /  6.4 km/h 8.0 mph /  12.9 km/h 62 % 0.00 in /  0 mm 60 W/m2
19:10 53.4 °F /  11.9 °C 41.1 °F /  5.1 °C 30.27 in /  1024.9 hPa NNW 4.0 mph /  6.4 km/h 8.0 mph /  12.9 km/h 63 % 0.00 in /  0 mm 49 W/m2
19:15 53.1 °F /  11.7 °C 40.8 °F /  4.9 °C 30.27 in /  1024.9 hPa NNW 3.0 mph /  4.8 km/h 8.0 mph /  12.9 km/h 63 % 0.00 in /  0 mm 40 W/m2
19:20 52.5 °F /  11.4 °C 40.7 °F /  4.8 °C 30.27 in /  1024.9 hPa NNW 3.0 mph /  4.8 km/h 8.0 mph /  12.9 km/h 64 % 0.00 in /  0 mm 33 W/m2
19:25 52.2 °F /  11.2 °C 40.7 °F /  4.8 °C 30.27 in /  1024.9 hPa NNW 4.0 mph /  6.4 km/h 8.0 mph /  12.9 km/h 65 % 0.00 in /  0 mm 25 W/m2
19:31 51.8 °F /  11 °C 40.8 °F /  4.9 °C 30.27 in /  1024.9 hPa NNW 4.0 mph /  6.4 km/h 7.0 mph /  11.3 km/h 66 % 0.00 in /  0 mm 19 W/m2
19:36 51.4 °F /  10.8 °C 40.5 °F /  4.7 °C 30.27 in /  1024.9 hPa NNW 3.0 mph /  4.8 km/h 7.0 mph /  11.3 km/h 66 % 0.00 in /  0 mm 14 W/m2
19:41 51.3 °F /  10.7 °C 40.7 °F /  4.8 °C 30.27 in /  1024.9 hPa NNW 3.0 mph /  4.8 km/h 6.0 mph /  9.7 km/h 67 % 0.00 in /  0 mm 11 W/m2
19:46 50.7 °F /  10.4 °C 40.5 °F /  4.7 °C 30.27 in /  1024.9 hPa NNW 3.0 mph /  4.8 km/h 8.0 mph /  12.9 km/h 68 % 0.00 in /  0 mm 9 W/m2
19:51 50.5 °F /  10.3 °C 40.4 °F /  4.7 °C 30.27 in /  1024.9 hPa NNW 3.0 mph /  4.8 km/h 8.0 mph /  12.9 km/h 68 % 0.00 in /  0 mm 7 W/m2
19:56 50.2 °F /  10.1 °C 40.4 °F /  4.7 °C 30.27 in /  1024.9 hPa NNW 3.0 mph /  4.8 km/h 6.0 mph /  9.7 km/h 69 % 0.00 in /  0 mm 5 W/m2
20:01 49.8 °F /  9.9 °C 40.1 °F /  4.5 °C 30.27 in /  1024.9 hPa NW 3.0 mph /  4.8 km/h 6.0 mph /  9.7 km/h 69 % 0.00 in /  0 mm 0 W/m2
20:07 49.5 °F /  9.7 °C 40.1 °F /  4.5 °C 30.27 in /  1024.9 hPa NNW 1.0 mph /  1.6 km/h 5.0 mph /  8 km/h 70 % 0.00 in /  0 mm 0 W/m2
20:12 49.3 °F /  9.6 °C 39.9 °F /  4.4 °C 30.28 in /  1025.3 hPa NNW 1.0 mph /  1.6 km/h 4.0 mph /  6.4 km/h 70 % 0.00 in /  0 mm 0 W/m2
20:17 48.9 °F /  9.4 °C 39.9 °F /  4.4 °C 30.28 in /  1025.3 hPa Calm   2.0 mph /  3.2 km/h 71 % 0.00 in /  0 mm 0 W/m2
20:22 48.7 °F /  9.3 °C 39.8 °F /  4.3 °C 30.28 in /  1025.3 hPa Calm   1.0 mph /  1.6 km/h 71 % 0.00 in /  0 mm 0 W/m2
20:27 48.4 °F /  9.1 °C 39.8 °F /  4.3 °C 30.28 in /  1025.3 hPa Calm     72 % 0.00 in /  0 mm 0 W/m2
20:32 48.0 °F /  8.9 °C 39.4 °F /  4.1 °C 30.28 in /  1025.3 hPa Calm     72 % 0.00 in /  0 mm 0 W/m2
20:38 47.8 °F /  8.8 °C 39.6 °F /  4.2 °C 30.28 in /  1025.3 hPa NNW 1.0 mph /  1.6 km/h 1.0 mph /  1.6 km/h 73 % 0.00 in /  0 mm 0 W/m2
20:43 47.3 °F /  8.5 °C 39.4 °F /  4.1 °C 30.28 in /  1025.3 hPa NW 1.0 mph /  1.6 km/h 2.0 mph /  3.2 km/h 74 % 0.00 in /  0 mm 0 W/m2
20:48 46.9 °F /  8.3 °C 39.1 °F /  3.9 °C 30.28 in /  1025.3 hPa Calm   2.0 mph /  3.2 km/h 74 % 0.00 in /  0 mm 0 W/m2
20:55 46.6 °F /  8.1 °C 39.1 °F /  3.9 °C 30.28 in /  1025.3 hPa Calm   1.0 mph /  1.6 km/h 75 % 0.00 in /  0 mm 0 W/m2
21:00 46.0 °F /  7.8 °C 39.2 °F /  4 °C 30.28 in /  1025.3 hPa Calm   1.0 mph /  1.6 km/h 77 % 0.00 in /  0 mm 0 W/m2
21:05 45.7 °F /  7.6 °C 38.9 °F /  3.8 °C 30.28 in /  1025.3 hPa Calm     77 % 0.00 in /  0 mm 0 W/m2
21:10 45.3 °F /  7.4 °C 38.9 °F /  3.8 °C 30.28 in /  1025.3 hPa Calm     78 % 0.00 in /  0 mm 0 W/m2
21:15 45.0 °F /  7.2 °C 38.8 °F /  3.8 °C 30.28 in /  1025.3 hPa Calm     79 % 0.00 in /  0 mm 0 W/m2
21:20 44.6 °F /  7 °C 38.5 °F /  3.6 °C 30.28 in /  1025.3 hPa Calm     79 % 0.00 in /  0 mm 0 W/m2
21:25 44.2 °F /  6.8 °C 38.5 °F /  3.6 °C 30.28 in /  1025.3 hPa Calm     80 % 0.00 in /  0 mm 0 W/m2
21:30 43.9 °F /  6.6 °C 38.1 °F /  3.4 °C 30.28 in /  1025.3 hPa Calm     80 % 0.00 in /  0 mm 0 W/m2
21:35 43.5 °F /  6.4 °C 38.1 °F /  3.4 °C 30.28 in /  1025.3 hPa Calm     81 % 0.00 in /  0 mm 0 W/m2
21:40 43.2 °F /  6.2 °C 38.0 °F /  3.3 °C 30.28 in /  1025.3 hPa Calm     82 % 0.00 in /  0 mm 0 W/m2
21:45 43.2 °F /  6.2 °C 38.3 °F /  3.5 °C 30.28 in /  1025.3 hPa Calm     83 % 0.00 in /  0 mm 0 W/m2
21:50 43.2 °F /  6.2 °C 38.3 °F /  3.5 °C 30.28 in /  1025.3 hPa Calm     83 % 0.00 in /  0 mm 0 W/m2
21:55 43.0 °F /  6.1 °C 38.5 °F /  3.6 °C 30.28 in /  1025.3 hPa Calm     84 % 0.00 in /  0 mm 0 W/m2
22:00 43.0 °F /  6.1 °C 38.5 °F /  3.6 °C 30.29 in /  1025.6 hPa Calm     84 % 0.00 in /  0 mm 0 W/m2
22:05 42.6 °F /  5.9 °C 37.8 °F /  3.2 °C 30.29 in /  1025.6 hPa Calm     83 % 0.00 in /  0 mm 0 W/m2
22:10 42.3 °F /  5.7 °C 37.5 °F /  3.1 °C 30.28 in /  1025.3 hPa Calm     83 % 0.00 in /  0 mm 0 W/m2
22:15 41.9 °F /  5.5 °C 37.1 °F /  2.8 °C 30.28 in /  1025.3 hPa Calm   2.0 mph /  3.2 km/h 83 % 0.00 in /  0 mm 0 W/m2
22:20 41.5 °F /  5.3 °C 37.1 °F /  2.8 °C 30.28 in /  1025.3 hPa Calm   2.0 mph /  3.2 km/h 84 % 0.00 in /  0 mm 0 W/m2
22:25 41.4 °F /  5.2 °C 37.2 °F /  2.9 °C 30.28 in /  1025.3 hPa Calm   2.0 mph /  3.2 km/h 85 % 0.00 in /  0 mm 0 W/m2
22:30 41.2 °F /  5.1 °C 37.0 °F /  2.8 °C 30.29 in /  1025.6 hPa Calm   1.0 mph /  1.6 km/h 85 % 0.00 in /  0 mm 0 W/m2
22:35 41.0 °F /  5 °C 37.1 °F /  2.8 °C 30.29 in /  1025.6 hPa Calm     86 % 0.00 in /  0 mm 0 W/m2
22:41 40.8 °F /  4.9 °C 37.0 °F /  2.8 °C 30.28 in /  1025.3 hPa Calm     86 % 0.00 in /  0 mm 0 W/m2
22:46 40.6 °F /  4.8 °C 36.8 °F /  2.7 °C 30.28 in /  1025.3 hPa Calm     86 % 0.00 in /  0 mm 0 W/m2
22:51 40.5 °F /  4.7 °C 36.6 °F /  2.6 °C 30.28 in /  1025.3 hPa Calm   1.0 mph /  1.6 km/h 86 % 0.00 in /  0 mm 0 W/m2
22:56 40.3 °F /  4.6 °C 36.7 °F /  2.6 °C 30.28 in /  1025.3 hPa Calm   1.0 mph /  1.6 km/h 87 % 0.00 in /  0 mm 0 W/m2
23:01 40.3 °F /  4.6 °C 36.7 °F /  2.6 °C 30.28 in /  1025.3 hPa Calm   1.0 mph /  1.6 km/h 87 % 0.00 in /  0 mm 0 W/m2
23:06 39.9 °F /  4.4 °C 36.4 °F /  2.4 °C 30.28 in /  1025.3 hPa Calm   1.0 mph /  1.6 km/h 87 % 0.00 in /  0 mm 0 W/m2
23:11 39.7 °F /  4.3 °C 36.2 °F /  2.3 °C 30.28 in /  1025.3 hPa Calm     87 % 0.00 in /  0 mm 0 W/m2
23:16 39.6 °F /  4.2 °C 36.0 °F /  2.2 °C 30.28 in /  1025.3 hPa Calm     87 % 0.00 in /  0 mm 0 W/m2
23:26 39.2 °F /  4 °C 35.9 °F /  2.2 °C 30.28 in /  1025.3 hPa Calm   1.0 mph /  1.6 km/h 88 % 0.00 in /  0 mm 0 W/m2
23:31 39.0 °F /  3.9 °C 35.8 °F /  2.1 °C 30.28 in /  1025.3 hPa Calm   1.0 mph /  1.6 km/h 88 % 0.00 in /  0 mm 0 W/m2
23:36 38.8 °F /  3.8 °C 35.6 °F /  2 °C 30.28 in /  1025.3 hPa Calm   1.0 mph /  1.6 km/h 88 % 0.00 in /  0 mm 0 W/m2
23:41 38.8 °F /  3.8 °C 35.6 °F /  2 °C 30.28 in /  1025.3 hPa Calm   1.0 mph /  1.6 km/h 88 % 0.00 in /  0 mm 0 W/m2
23:46 38.7 °F /  3.7 °C 35.4 °F /  1.9 °C 30.28 in /  1025.3 hPa Calm     88 % 0.00 in /  0 mm 0 W/m2
23:51 38.5 °F /  3.6 °C 35.2 °F /  1.8 °C 30.28 in /  1025.3 hPa Calm     88 % 0.00 in /  0 mm 0 W/m2
23:56 38.1 °F /  3.4 °C 34.9 °F /  1.6 °C 30.28 in /  1025.3 hPa Calm     88 % 0.00 in /  0 mm 0 W/m2
Delerius-Weather
Compliments of Weather Underground - 2.25 mb

Data updates at regular intervals.